createdAt,value
2024-03-24T00:00:05.794Z,0.00
2024-03-24T00:00:59.268Z,0.00
2024-03-24T00:02:00.480Z,0.00
2024-03-24T00:02:59.843Z,0.00
2024-03-24T00:04:00.387Z,0.00
2024-03-24T00:04:59.305Z,0.00
2024-03-24T00:05:59.222Z,0.00
2024-03-24T00:06:59.224Z,0.00
2024-03-24T00:07:59.215Z,0.00
2024-03-24T00:08:59.296Z,0.00
2024-03-24T00:09:59.251Z,0.00
2024-03-24T00:10:59.196Z,0.00
2024-03-24T00:11:59.190Z,0.00
2024-03-24T00:12:59.311Z,0.00
2024-03-24T00:13:59.227Z,0.00
2024-03-24T00:14:59.261Z,0.00
2024-03-24T00:15:59.286Z,0.00
2024-03-24T00:16:59.152Z,0.00
2024-03-24T00:17:59.091Z,0.00
2024-03-24T00:18:59.106Z,0.00
2024-03-24T00:19:59.061Z,0.00
2024-03-24T00:20:59.069Z,0.00
2024-03-24T00:21:59.048Z,0.00
2024-03-24T00:22:59.029Z,0.00
2024-03-24T00:23:59.058Z,0.00
2024-03-24T00:24:59.026Z,0.00
2024-03-24T00:25:59.007Z,0.00
2024-03-24T00:26:58.996Z,0.00
2024-03-24T00:27:59.066Z,0.00
2024-03-24T00:28:59.011Z,0.00
2024-03-24T00:29:58.960Z,0.00
2024-03-24T00:30:58.963Z,0.00
2024-03-24T00:31:58.962Z,0.00
2024-03-24T00:33:00.099Z,0.00
2024-03-24T00:33:58.932Z,0.00
2024-03-24T00:34:58.925Z,0.00
2024-03-24T00:35:58.909Z,0.00
2024-03-24T00:36:58.924Z,0.00
2024-03-24T00:37:58.904Z,0.00
2024-03-24T00:38:58.892Z,0.00
2024-03-24T00:39:58.882Z,0.00
2024-03-24T00:40:58.856Z,0.00
2024-03-24T00:41:58.892Z,0.00
2024-03-24T00:42:58.862Z,0.00
2024-03-24T00:43:58.852Z,0.00
2024-03-24T00:44:58.824Z,0.00
2024-03-24T00:45:58.808Z,0.00
2024-03-24T00:46:58.835Z,0.00
2024-03-24T00:47:58.790Z,0.00
2024-03-24T00:48:58.794Z,0.00
2024-03-24T00:49:58.779Z,0.00
2024-03-24T00:50:58.778Z,0.00
2024-03-24T00:51:58.778Z,0.00
2024-03-24T00:52:58.751Z,0.00
2024-03-24T00:53:58.734Z,0.00
2024-03-24T00:54:58.740Z,0.00
2024-03-24T00:55:58.731Z,0.00
2024-03-24T00:56:58.720Z,0.00
2024-03-24T00:57:58.690Z,0.00
2024-03-24T00:58:58.705Z,0.00
2024-03-24T00:59:58.674Z,0.00
2024-03-24T01:00:58.693Z,0.00
2024-03-24T01:01:58.675Z,0.00
2024-03-24T01:02:58.657Z,0.00
2024-03-24T01:03:58.648Z,0.00
2024-03-24T01:04:58.638Z,0.00
2024-03-24T01:05:58.638Z,0.00
2024-03-24T01:06:58.628Z,0.00
2024-03-24T01:07:58.620Z,0.00
2024-03-24T01:08:58.609Z,0.00
2024-03-24T01:09:58.631Z,0.00
2024-03-24T01:10:58.595Z,0.00
2024-03-24T01:11:58.559Z,0.00
2024-03-24T01:12:58.564Z,0.00
2024-03-24T01:13:58.553Z,0.00
2024-03-24T01:14:58.583Z,0.00
2024-03-24T01:15:58.527Z,0.00
2024-03-24T01:16:58.512Z,0.00
2024-03-24T01:17:58.505Z,0.00
2024-03-24T01:18:58.496Z,0.00
2024-03-24T01:19:58.518Z,0.00
2024-03-24T01:20:58.550Z,0.00
2024-03-24T01:21:58.469Z,0.00
2024-03-24T01:22:58.470Z,0.00
2024-03-24T01:23:58.509Z,0.00
2024-03-24T01:24:58.473Z,0.00
2024-03-24T01:25:58.424Z,0.00
2024-03-24T01:26:58.459Z,0.00
2024-03-24T01:27:58.435Z,0.00
2024-03-24T01:28:58.448Z,0.00
2024-03-24T01:29:58.413Z,0.00
2024-03-24T01:30:58.383Z,0.00
2024-03-24T01:31:58.405Z,0.00
2024-03-24T01:32:58.412Z,0.00
2024-03-24T01:33:58.420Z,0.00
2024-03-24T01:34:58.357Z,0.00
2024-03-24T01:35:58.358Z,0.00
2024-03-24T01:36:58.335Z,0.00
2024-03-24T01:37:58.370Z,0.00
2024-03-24T01:38:58.338Z,0.00
2024-03-24T01:39:58.298Z,0.00
2024-03-24T01:40:58.303Z,0.00
2024-03-24T01:41:58.280Z,0.00
2024-03-24T01:42:58.319Z,0.00
2024-03-24T01:43:58.245Z,0.00
2024-03-24T01:44:58.257Z,0.00
2024-03-24T01:45:58.240Z,0.00
2024-03-24T01:46:58.266Z,0.00
2024-03-24T01:47:58.243Z,0.00
2024-03-24T01:48:58.223Z,0.00
2024-03-24T01:49:58.195Z,0.00
2024-03-24T01:50:58.190Z,0.00
2024-03-24T01:51:58.202Z,0.00
2024-03-24T01:52:58.194Z,0.00
2024-03-24T01:53:58.168Z,0.00
2024-03-24T01:54:58.158Z,0.00
2024-03-24T01:55:58.140Z,0.00
2024-03-24T01:56:58.161Z,0.00
2024-03-24T01:57:58.133Z,0.00
2024-03-24T01:58:58.145Z,0.00
2024-03-24T01:59:58.118Z,0.00
2024-03-24T02:00:58.091Z,0.00
2024-03-24T02:01:58.113Z,0.00
2024-03-24T02:02:58.076Z,0.00
2024-03-24T02:03:58.068Z,0.00
2024-03-24T02:04:58.087Z,0.00
2024-03-24T02:05:58.073Z,0.00
2024-03-24T02:06:58.055Z,0.00
2024-03-24T02:07:58.019Z,0.00
2024-03-24T02:08:58.038Z,0.00
2024-03-24T02:09:58.019Z,0.00
2024-03-24T02:10:58.038Z,0.00
2024-03-24T02:11:57.993Z,0.00
2024-03-24T02:12:57.994Z,0.00
2024-03-24T02:13:57.974Z,0.00
2024-03-24T02:14:57.964Z,0.00
2024-03-24T02:15:57.983Z,0.00
2024-03-24T02:16:57.950Z,0.00
2024-03-24T02:18:00.485Z,0.00
2024-03-24T02:18:57.919Z,0.00
2024-03-24T02:19:57.942Z,0.00
2024-03-24T02:20:57.985Z,0.00
2024-03-24T02:21:57.908Z,0.00
2024-03-24T02:22:57.889Z,0.00
2024-03-24T02:23:57.878Z,0.00
2024-03-24T02:24:57.945Z,0.00
2024-03-24T02:25:57.866Z,0.00
2024-03-24T02:26:57.870Z,0.00
2024-03-24T02:27:57.858Z,0.00
2024-03-24T02:28:57.856Z,0.00
2024-03-24T02:29:57.877Z,0.00
2024-03-24T02:30:57.816Z,0.00
2024-03-24T02:31:57.816Z,0.00
2024-03-24T02:32:57.783Z,0.00
2024-03-24T02:33:57.814Z,0.00
2024-03-24T02:34:57.825Z,0.00
2024-03-24T02:35:57.771Z,0.00
2024-03-24T02:36:57.750Z,0.00
2024-03-24T02:37:57.742Z,0.00
2024-03-24T02:38:57.753Z,0.00
2024-03-24T02:39:57.735Z,0.00
2024-03-24T02:40:57.714Z,0.00
2024-03-24T02:41:57.707Z,0.00
2024-03-24T02:42:57.716Z,0.00
2024-03-24T02:43:57.703Z,0.00
2024-03-24T02:44:57.674Z,0.00
2024-03-24T02:45:57.711Z,0.00
2024-03-24T02:46:57.675Z,0.00
2024-03-24T02:47:57.698Z,0.00
2024-03-24T02:48:57.671Z,0.00
2024-03-24T02:49:57.672Z,0.00
2024-03-24T02:50:57.619Z,0.00
2024-03-24T02:51:57.613Z,0.00
2024-03-24T02:52:57.658Z,0.00
2024-03-24T02:53:57.610Z,0.00
2024-03-24T02:54:57.602Z,0.00
2024-03-24T02:55:57.576Z,0.00
2024-03-24T02:56:57.604Z,0.00
2024-03-24T02:57:57.574Z,0.00
2024-03-24T02:58:57.551Z,0.00
2024-03-24T02:59:57.551Z,0.00
2024-03-24T03:00:57.518Z,0.00
2024-03-24T03:01:57.549Z,0.00
2024-03-24T03:02:57.518Z,0.00
2024-03-24T03:03:57.486Z,0.00
2024-03-24T03:04:57.497Z,0.00
2024-03-24T03:05:57.473Z,0.00
2024-03-24T03:06:57.510Z,0.00
2024-03-24T03:07:57.451Z,0.00
2024-03-24T03:08:57.467Z,0.00
2024-03-24T03:09:57.464Z,0.00
2024-03-24T03:10:57.476Z,0.00
2024-03-24T03:11:57.476Z,0.00
2024-03-24T03:12:57.423Z,0.00
2024-03-24T03:13:57.405Z,0.00
2024-03-24T03:14:57.415Z,0.00
2024-03-24T03:15:57.409Z,0.00
2024-03-24T03:16:57.357Z,0.00
2024-03-24T03:17:57.363Z,0.00
2024-03-24T03:18:57.357Z,0.00
2024-03-24T03:19:57.360Z,0.00
2024-03-24T03:20:57.375Z,0.00
2024-03-24T03:21:57.317Z,0.00
2024-03-24T03:22:57.344Z,0.00
2024-03-24T03:23:57.329Z,0.00
2024-03-24T03:24:57.314Z,0.00
2024-03-24T03:25:57.321Z,0.00
2024-03-24T03:26:57.268Z,0.00
2024-03-24T03:27:57.271Z,0.00
2024-03-24T03:28:57.278Z,0.00
2024-03-24T03:29:57.282Z,0.00
2024-03-24T03:30:57.220Z,0.00
2024-03-24T03:31:57.223Z,0.00
2024-03-24T03:32:57.209Z,0.00
2024-03-24T03:33:57.226Z,0.00
2024-03-24T03:34:57.225Z,0.00
2024-03-24T03:35:57.221Z,0.00
2024-03-24T03:36:57.208Z,0.00
2024-03-24T03:37:57.162Z,0.00
2024-03-24T03:38:57.223Z,0.00
2024-03-24T03:39:57.192Z,0.00
2024-03-24T03:40:57.194Z,0.00
2024-03-24T03:41:57.198Z,0.00
2024-03-24T03:42:57.125Z,0.00
2024-03-24T03:43:57.202Z,0.00
2024-03-24T03:44:57.139Z,0.00
2024-03-24T03:45:57.106Z,0.00
2024-03-24T03:46:57.087Z,0.00
2024-03-24T03:47:57.075Z,0.00
2024-03-24T03:48:57.122Z,0.00
2024-03-24T03:49:57.073Z,0.00
2024-03-24T03:50:57.062Z,0.00
2024-03-24T03:51:57.075Z,0.00
2024-03-24T03:52:57.024Z,0.00
2024-03-24T03:53:57.059Z,0.00
2024-03-24T03:54:57.047Z,0.00
2024-03-24T03:55:57.001Z,0.00
2024-03-24T03:56:56.990Z,0.00
2024-03-24T03:57:56.999Z,0.00
2024-03-24T03:58:56.996Z,0.00
2024-03-24T03:59:56.971Z,0.00
2024-03-24T04:00:56.971Z,0.00
2024-03-24T04:01:56.964Z,0.00
2024-03-24T04:02:56.958Z,0.00
2024-03-24T04:03:56.932Z,0.00
2024-03-24T04:04:56.919Z,0.00
2024-03-24T04:05:56.911Z,0.00
2024-03-24T04:06:56.935Z,0.00
2024-03-24T04:07:56.901Z,0.00
2024-03-24T04:08:56.881Z,0.00
2024-03-24T04:09:56.882Z,0.00
2024-03-24T04:10:56.858Z,0.00
2024-03-24T04:11:56.856Z,0.00
2024-03-24T04:12:56.863Z,0.00
2024-03-24T04:13:56.823Z,0.00
2024-03-24T04:14:56.830Z,0.00
2024-03-24T04:15:56.824Z,0.00
2024-03-24T04:16:56.847Z,0.00
2024-03-24T04:17:56.783Z,0.00
2024-03-24T04:18:56.807Z,0.00
2024-03-24T04:19:56.763Z,0.00
2024-03-24T04:20:56.785Z,0.00
2024-03-24T04:21:56.777Z,0.00
2024-03-24T04:22:56.753Z,0.00
2024-03-24T04:23:56.674Z,1.00
2024-03-24T04:24:56.681Z,1.00
2024-03-24T04:25:56.671Z,1.00
2024-03-24T04:26:56.680Z,1.00
2024-03-24T04:27:56.644Z,2.00
2024-03-24T04:28:56.623Z,2.00
2024-03-24T04:29:56.659Z,2.00
2024-03-24T04:30:56.663Z,1.00
2024-03-24T04:31:56.638Z,2.00
2024-03-24T04:32:56.590Z,1.00
2024-03-24T04:33:56.600Z,3.00
2024-03-24T04:34:56.621Z,8.00
2024-03-24T04:35:56.618Z,5.00
2024-03-24T04:36:56.575Z,4.00
2024-03-24T04:37:56.548Z,5.00
2024-03-24T04:38:56.537Z,9.00
2024-03-24T04:39:56.561Z,9.00
2024-03-24T04:40:56.525Z,11.00
2024-03-24T04:41:56.522Z,12.00
2024-03-24T04:42:56.507Z,16.00
2024-03-24T04:43:56.506Z,17.00
2024-03-24T04:44:56.524Z,19.00
2024-03-24T04:45:56.479Z,27.00
2024-03-24T04:46:56.465Z,30.00
2024-03-24T04:47:56.449Z,33.00
2024-03-24T04:48:56.476Z,38.00
2024-03-24T04:49:56.451Z,41.00
2024-03-24T04:50:56.456Z,45.00
2024-03-24T04:51:56.420Z,54.00
2024-03-24T04:52:56.441Z,62.00
2024-03-24T04:53:56.418Z,69.00
2024-03-24T04:54:56.404Z,80.00
2024-03-24T04:55:56.408Z,85.00
2024-03-24T04:56:56.408Z,95.00
2024-03-24T04:57:56.364Z,104.00
2024-03-24T04:58:56.413Z,112.00
2024-03-24T04:59:56.355Z,124.00
2024-03-24T05:00:56.327Z,134.00
2024-03-24T05:01:56.324Z,145.00
2024-03-24T05:02:56.358Z,156.00
2024-03-24T05:03:56.319Z,170.00
2024-03-24T05:04:56.292Z,181.00
2024-03-24T05:05:56.276Z,193.00
2024-03-24T05:06:56.274Z,208.00
2024-03-24T05:07:56.276Z,221.00
2024-03-24T05:08:56.241Z,240.00
2024-03-24T05:09:56.250Z,257.00
2024-03-24T05:10:56.242Z,277.00
2024-03-24T05:11:56.228Z,290.00
2024-03-24T05:12:56.246Z,301.00
2024-03-24T05:13:56.228Z,329.00
2024-03-24T05:14:56.198Z,342.00
2024-03-24T05:15:56.208Z,345.00
2024-03-24T05:16:56.185Z,373.00
2024-03-24T05:17:56.182Z,386.00
2024-03-24T05:18:56.163Z,399.00
2024-03-24T05:19:56.172Z,443.00
2024-03-24T05:20:56.137Z,469.00
2024-03-24T05:21:56.247Z,501.00
2024-03-24T05:22:56.119Z,524.00
2024-03-24T05:23:56.135Z,555.00
2024-03-24T05:24:56.130Z,551.00
2024-03-24T05:25:56.097Z,554.00
2024-03-24T05:26:56.098Z,520.00
2024-03-24T05:27:56.128Z,583.00
2024-03-24T05:28:56.269Z,604.00
2024-03-24T05:29:56.059Z,629.00
2024-03-24T05:30:56.140Z,640.00
2024-03-24T05:31:56.062Z,759.00
2024-03-24T05:32:56.028Z,794.00
2024-03-24T05:33:56.027Z,830.00
2024-03-24T05:34:56.008Z,821.00
2024-03-24T05:35:56.011Z,841.00
2024-03-24T05:36:55.997Z,898.00
2024-03-24T05:37:55.987Z,910.00
2024-03-24T05:38:55.958Z,1051.00
2024-03-24T05:39:55.971Z,1206.00
2024-03-24T05:40:55.980Z,1119.00
2024-03-24T05:41:55.944Z,975.00
2024-03-24T05:42:55.946Z,955.00
2024-03-24T05:43:55.956Z,1144.00
2024-03-24T05:44:55.944Z,1085.00
2024-03-24T05:45:55.948Z,1024.00
2024-03-24T05:46:55.898Z,1058.00
2024-03-24T05:47:55.891Z,1076.00
2024-03-24T05:48:55.888Z,1292.00
2024-03-24T05:49:55.905Z,1325.00
2024-03-24T05:50:55.922Z,1317.00
2024-03-24T05:51:55.884Z,1370.00
2024-03-24T05:52:55.878Z,1402.00
2024-03-24T05:53:55.823Z,1190.00
2024-03-24T05:54:55.838Z,1179.00
2024-03-24T05:55:55.831Z,1219.00
2024-03-24T05:56:55.802Z,1241.00
2024-03-24T05:57:55.837Z,1316.00
2024-03-24T05:58:55.812Z,1338.00
2024-03-24T05:59:55.826Z,1199.00
2024-03-24T06:00:55.774Z,1121.00
2024-03-24T06:01:55.789Z,1111.00
2024-03-24T06:02:55.756Z,1380.00
2024-03-24T06:03:55.777Z,1736.00
2024-03-24T06:04:55.723Z,2030.00
2024-03-24T06:05:55.716Z,2096.00
2024-03-24T06:06:55.711Z,2331.00
2024-03-24T06:07:55.716Z,2595.00
2024-03-24T06:08:55.728Z,2388.00
2024-03-24T06:09:55.669Z,2074.00
2024-03-24T06:10:55.654Z,1890.00
2024-03-24T06:11:55.644Z,1728.00
2024-03-24T06:12:55.659Z,1443.00
2024-03-24T06:13:55.672Z,1636.00
2024-03-24T06:14:55.666Z,1861.00
2024-03-24T06:15:55.626Z,2136.00
2024-03-24T06:16:55.640Z,2434.00
2024-03-24T06:17:55.662Z,1820.00
2024-03-24T06:18:55.585Z,1441.00
2024-03-24T06:19:55.587Z,1442.00
2024-03-24T06:20:55.565Z,1873.00
2024-03-24T06:21:55.570Z,2267.00
2024-03-24T06:22:55.568Z,2555.00
2024-03-24T06:23:55.544Z,2730.00
2024-03-24T06:24:55.526Z,2942.00
2024-03-24T06:25:55.536Z,3079.00
2024-03-24T06:26:55.531Z,3066.00
2024-03-24T06:27:55.512Z,2628.00
2024-03-24T06:28:55.490Z,2226.00
2024-03-24T06:29:55.476Z,2099.00
2024-03-24T06:30:55.476Z,2042.00
2024-03-24T06:31:55.529Z,1900.00
2024-03-24T06:32:55.444Z,1931.00
2024-03-24T06:33:55.468Z,1935.00
2024-03-24T06:34:55.452Z,1861.00
2024-03-24T06:35:55.466Z,1968.00
2024-03-24T06:36:55.479Z,2418.00
2024-03-24T06:37:55.408Z,2641.00
2024-03-24T06:38:55.426Z,2684.00
2024-03-24T06:39:55.429Z,2898.00
2024-03-24T06:40:55.398Z,2795.00
2024-03-24T06:41:55.420Z,2487.00
2024-03-24T06:42:55.361Z,1247.00
2024-03-24T06:43:55.379Z,1241.00
2024-03-24T06:44:55.370Z,2577.00
2024-03-24T06:45:55.377Z,7932.00
2024-03-24T06:46:55.359Z,6853.00
2024-03-24T06:47:55.316Z,5661.00
2024-03-24T06:48:55.319Z,5975.00
2024-03-24T06:49:55.291Z,4999.00
2024-03-24T06:50:55.301Z,5341.00
2024-03-24T06:51:55.278Z,3667.00
2024-03-24T06:52:55.288Z,3406.00
2024-03-24T06:53:55.258Z,3182.00
2024-03-24T06:54:55.291Z,3164.00
2024-03-24T06:55:55.258Z,4149.00
2024-03-24T06:56:55.225Z,4205.00
2024-03-24T06:57:55.270Z,5981.00
2024-03-24T06:58:55.207Z,6224.00
2024-03-24T06:59:55.228Z,7488.00
2024-03-24T07:00:55.213Z,8508.00
2024-03-24T07:01:55.194Z,6501.00
2024-03-24T07:02:55.177Z,7462.00
2024-03-24T07:03:55.180Z,8080.00
2024-03-24T07:04:55.189Z,8178.00
2024-03-24T07:05:55.167Z,8266.00
2024-03-24T07:06:55.127Z,9744.00
2024-03-24T07:07:55.131Z,11450.00
2024-03-24T07:08:55.137Z,12307.00
2024-03-24T07:09:55.128Z,9789.00
2024-03-24T07:10:55.094Z,10851.00
2024-03-24T07:11:55.082Z,10961.00
2024-03-24T07:12:55.070Z,5915.00
2024-03-24T07:13:55.111Z,13628.00
2024-03-24T07:14:55.064Z,15155.00
2024-03-24T07:15:55.045Z,10956.00
2024-03-24T07:16:55.101Z,15450.00
2024-03-24T07:17:55.022Z,17480.00
2024-03-24T07:18:55.039Z,25202.00
2024-03-24T07:19:55.008Z,8628.00
2024-03-24T07:20:55.045Z,10916.00
2024-03-24T07:21:55.037Z,19260.00
2024-03-24T07:22:55.001Z,22571.00
2024-03-24T07:23:55.001Z,23938.00
2024-03-24T07:24:54.978Z,21813.00
2024-03-24T07:25:54.958Z,15988.00
2024-03-24T07:26:54.966Z,10459.00
2024-03-24T07:27:54.965Z,4262.00
2024-03-24T07:28:54.933Z,7854.00
2024-03-24T07:29:54.936Z,2443.00
2024-03-24T07:32:32.363Z,10674.00
2024-03-24T07:33:34.316Z,4655.00
2024-03-24T07:34:33.333Z,23194.00
2024-03-24T07:35:33.273Z,11520.00
2024-03-24T07:36:33.274Z,15312.00
2024-03-24T07:37:33.321Z,24391.00
2024-03-24T07:38:33.243Z,26357.00
2024-03-24T07:39:33.231Z,25842.00
2024-03-24T07:40:33.235Z,24036.00
2024-03-24T07:41:33.254Z,22544.00
2024-03-24T07:42:33.232Z,21490.00
2024-03-24T07:43:33.212Z,23763.00
2024-03-24T07:44:33.191Z,21683.00
2024-03-24T07:45:33.266Z,20565.00
2024-03-24T07:46:33.203Z,23389.00
2024-03-24T07:47:33.167Z,24184.00
2024-03-24T07:48:33.165Z,29781.00
2024-03-24T07:49:33.191Z,4754.00
2024-03-24T07:50:33.283Z,24113.00
2024-03-24T07:51:33.179Z,21142.00
2024-03-24T07:52:33.143Z,26028.00
2024-03-24T07:53:33.097Z,26930.00
2024-03-24T07:54:33.110Z,27147.00
2024-03-24T07:55:33.121Z,4672.00
2024-03-24T07:56:33.141Z,72580.00
2024-03-24T07:57:33.075Z,69781.00
2024-03-24T07:58:33.053Z,20441.00
2024-03-24T07:59:33.060Z,30044.00
2024-03-24T08:00:33.118Z,28632.00
2024-03-24T08:01:33.037Z,4519.00
2024-03-24T08:02:33.032Z,20873.00
2024-03-24T08:03:33.029Z,7190.00
2024-03-24T08:04:33.009Z,5682.00
2024-03-24T08:05:34.699Z,9414.00
2024-03-24T08:06:32.989Z,7692.00
2024-03-24T08:07:32.981Z,7065.00
2024-03-24T08:08:32.960Z,5036.00
2024-03-24T08:09:33.000Z,2732.00
2024-03-24T08:10:33.001Z,6120.00
2024-03-24T08:11:32.974Z,4297.00
2024-03-24T08:12:32.930Z,4663.00
2024-03-24T08:13:32.931Z,6899.00
2024-03-24T08:14:32.949Z,5301.00
2024-03-24T08:15:32.958Z,5210.00
2024-03-24T08:16:32.910Z,5875.00
2024-03-24T08:17:32.906Z,4778.00
2024-03-24T08:18:32.897Z,6482.00
2024-03-24T08:19:32.897Z,2034.00
2024-03-24T08:20:32.860Z,4674.00
2024-03-24T08:21:32.867Z,14244.00
2024-03-24T08:22:32.836Z,9158.00
2024-03-24T08:23:32.840Z,1889.00
2024-03-24T08:24:32.902Z,10025.00
2024-03-24T08:25:32.837Z,4092.00
2024-03-24T08:26:32.892Z,4860.00
2024-03-24T08:27:32.812Z,6320.00
2024-03-24T08:28:32.822Z,2503.00
2024-03-24T08:29:32.804Z,14596.00
2024-03-24T08:30:32.798Z,3068.00
2024-03-24T08:31:32.766Z,16111.00
2024-03-24T08:32:32.870Z,17574.00
2024-03-24T08:33:32.769Z,2997.00
2024-03-24T08:34:32.801Z,10295.00
2024-03-24T08:35:32.723Z,7168.00
2024-03-24T08:36:32.743Z,6429.00
2024-03-24T08:37:32.726Z,10754.00
2024-03-24T08:38:32.726Z,12411.00
2024-03-24T08:39:32.721Z,8300.00
2024-03-24T08:40:32.738Z,7398.00
2024-03-24T08:41:32.696Z,5406.00
2024-03-24T08:42:32.680Z,3049.00
2024-03-24T08:43:32.690Z,18202.00
2024-03-24T08:44:32.648Z,3449.00
2024-03-24T08:45:32.721Z,17837.00
2024-03-24T08:46:32.639Z,9890.00
2024-03-24T08:47:32.710Z,3840.00
2024-03-24T08:48:38.422Z,3368.00
2024-03-24T08:49:34.767Z,22695.00
2024-03-24T08:50:32.631Z,8267.00
2024-03-24T08:51:32.591Z,9360.00
2024-03-24T08:52:35.304Z,4667.00
2024-03-24T08:53:32.666Z,6467.00
2024-03-24T08:54:33.490Z,1567.00
2024-03-24T08:55:32.571Z,3512.00
2024-03-24T08:56:32.588Z,15496.00
2024-03-24T08:57:32.553Z,18387.00
2024-03-24T08:58:32.519Z,6615.00
2024-03-24T08:59:33.366Z,2265.00
2024-03-24T09:00:32.500Z,4601.00
2024-03-24T09:01:32.512Z,18336.00
2024-03-24T09:02:32.503Z,2582.00
2024-03-24T09:03:32.450Z,11691.00
2024-03-24T09:04:32.444Z,19223.00
2024-03-24T09:05:32.440Z,25181.00
2024-03-24T09:06:32.461Z,14360.00
2024-03-24T09:07:32.528Z,2023.00
2024-03-24T09:08:32.458Z,9186.00
2024-03-24T09:09:32.418Z,4734.00
2024-03-24T09:10:32.481Z,3415.00
2024-03-24T09:11:32.467Z,2425.00
2024-03-24T09:12:32.434Z,2329.00
2024-03-24T09:13:32.394Z,1865.00
2024-03-24T09:14:32.358Z,11031.00
2024-03-24T09:15:32.378Z,3417.00
2024-03-24T09:16:34.933Z,1605.00
2024-03-24T09:17:32.331Z,9448.00
2024-03-24T09:18:32.315Z,4614.00
2024-03-24T09:19:32.327Z,3533.00
2024-03-24T09:20:32.366Z,2020.00
2024-03-24T09:21:32.307Z,1975.00
2024-03-24T09:22:32.296Z,4273.00
2024-03-24T09:23:32.282Z,6014.00
2024-03-24T09:24:32.290Z,4641.00
2024-03-24T09:25:32.312Z,3657.00
2024-03-24T09:26:32.241Z,2972.00
2024-03-24T09:27:32.248Z,2764.00
2024-03-24T09:28:32.237Z,3232.00
2024-03-24T09:29:32.232Z,3185.00
2024-03-24T09:30:32.233Z,3806.00
2024-03-24T09:31:32.225Z,3405.00
2024-03-24T09:32:32.204Z,3955.00
2024-03-24T09:33:32.212Z,5350.00
2024-03-24T09:34:32.217Z,4931.00
2024-03-24T09:35:32.178Z,5562.00
2024-03-24T09:36:32.196Z,4584.00
2024-03-24T09:37:32.271Z,2030.00
2024-03-24T09:38:33.015Z,3471.00
2024-03-24T09:39:32.153Z,5305.00
2024-03-24T09:40:32.119Z,4730.00
2024-03-24T09:41:32.149Z,4654.00
2024-03-24T09:42:32.115Z,4307.00
2024-03-24T09:43:32.119Z,3146.00
2024-03-24T09:44:32.086Z,5205.00
2024-03-24T09:45:32.092Z,3403.00
2024-03-24T09:46:32.100Z,18727.00
2024-03-24T09:47:32.093Z,6707.00
2024-03-24T09:48:32.074Z,12468.00
2024-03-24T09:49:32.039Z,13328.00
2024-03-24T09:50:32.072Z,11567.00
2024-03-24T09:51:32.025Z,3080.00
2024-03-24T09:52:32.030Z,9452.00
2024-03-24T09:53:32.019Z,2711.00
2024-03-24T09:54:32.031Z,7180.00
2024-03-24T09:55:31.976Z,11697.00
2024-03-24T09:56:31.991Z,7758.00
2024-03-24T09:57:31.978Z,6204.00
2024-03-24T09:58:31.952Z,3367.00
2024-03-24T09:59:31.965Z,1920.00
2024-03-24T10:00:31.936Z,3271.00
2024-03-24T10:01:31.935Z,7257.00
2024-03-24T10:02:31.938Z,3227.00
2024-03-24T10:03:31.918Z,14094.00
2024-03-24T10:04:32.004Z,14137.00
2024-03-24T10:05:31.882Z,7707.00
2024-03-24T10:06:31.885Z,9290.00
2024-03-24T10:07:31.892Z,4614.00
2024-03-24T10:08:31.857Z,5529.00
2024-03-24T10:09:31.879Z,3962.00
2024-03-24T10:10:31.845Z,2770.00
2024-03-24T10:11:31.847Z,3433.00
2024-03-24T10:12:31.838Z,4546.00
2024-03-24T10:13:31.810Z,4072.00
2024-03-24T10:14:31.818Z,3798.00
2024-03-24T10:15:31.784Z,4343.00
2024-03-24T10:16:31.833Z,5389.00
2024-03-24T10:17:31.776Z,4688.00
2024-03-24T10:18:31.776Z,3994.00
2024-03-24T10:19:31.787Z,4252.00
2024-03-24T10:20:31.804Z,3275.00
2024-03-24T10:21:31.753Z,3349.00
2024-03-24T10:22:31.736Z,4580.00
2024-03-24T10:23:31.747Z,4814.00
2024-03-24T10:24:31.722Z,4880.00
2024-03-24T10:25:31.746Z,4700.00
2024-03-24T10:26:31.689Z,4069.00
2024-03-24T10:27:31.675Z,3051.00
2024-03-24T10:28:31.678Z,2187.00
2024-03-24T10:29:31.668Z,1946.00
2024-03-24T10:30:31.686Z,2656.00
2024-03-24T10:31:31.668Z,2613.00
2024-03-24T10:32:31.659Z,2201.00
2024-03-24T10:33:31.628Z,2375.00
2024-03-24T10:34:31.632Z,2177.00
2024-03-24T10:35:31.603Z,2362.00
2024-03-24T10:36:31.603Z,2269.00
2024-03-24T10:37:31.601Z,2247.00
2024-03-24T10:38:31.579Z,2836.00
2024-03-24T10:39:31.655Z,3998.00
2024-03-24T10:40:31.573Z,4568.00
2024-03-24T10:41:31.541Z,6767.00
2024-03-24T10:42:31.536Z,7811.00
2024-03-24T10:43:31.567Z,7411.00
2024-03-24T10:44:31.551Z,6145.00
2024-03-24T10:45:31.537Z,6162.00
2024-03-24T10:46:31.525Z,5223.00
2024-03-24T10:47:31.517Z,5495.00
2024-03-24T10:48:31.510Z,5674.00
2024-03-24T10:49:31.469Z,5820.00
2024-03-24T10:50:31.500Z,6269.00
2024-03-24T10:51:31.497Z,5862.00
2024-03-24T10:52:31.489Z,5613.00
2024-03-24T10:53:31.491Z,6441.00
2024-03-24T10:54:31.432Z,6206.00
2024-03-24T10:55:31.458Z,6185.00
2024-03-24T10:56:31.448Z,4647.00
2024-03-24T10:57:31.431Z,3851.00
2024-03-24T10:58:31.437Z,4281.00
2024-03-24T10:59:31.418Z,4474.00
2024-03-24T11:00:31.398Z,3665.00
2024-03-24T11:01:31.389Z,4732.00
2024-03-24T11:02:31.379Z,4265.00
2024-03-24T11:03:31.365Z,3868.00
2024-03-24T11:04:31.344Z,4174.00
2024-03-24T11:05:31.315Z,4063.00
2024-03-24T11:06:31.353Z,4269.00
2024-03-24T11:07:31.357Z,3620.00
2024-03-24T11:08:31.325Z,2303.00
2024-03-24T11:09:31.373Z,1815.00
2024-03-24T11:10:31.360Z,2230.00
2024-03-24T11:11:31.317Z,3707.00
2024-03-24T11:12:31.366Z,3181.00
2024-03-24T11:13:31.379Z,2629.00
2024-03-24T11:14:31.282Z,2947.00
2024-03-24T11:15:31.289Z,3311.00
2024-03-24T11:16:31.364Z,2104.00
2024-03-24T11:17:31.329Z,1597.00
2024-03-24T11:18:31.323Z,1821.00
2024-03-24T11:19:31.390Z,2145.00
2024-03-24T11:20:31.215Z,2553.00
2024-03-24T11:21:31.342Z,2972.00
2024-03-24T11:22:31.200Z,3435.00
2024-03-24T11:23:31.170Z,2920.00
2024-03-24T11:24:33.027Z,2685.00
2024-03-24T11:25:31.251Z,2315.00
2024-03-24T11:26:31.304Z,2335.00
2024-03-24T11:27:31.258Z,2509.00
2024-03-24T11:28:31.138Z,2464.00
2024-03-24T11:29:31.111Z,2303.00
2024-03-24T11:30:31.127Z,2239.00
2024-03-24T11:31:31.134Z,2073.00
2024-03-24T11:32:31.073Z,1752.00
2024-03-24T11:33:31.062Z,2339.00
2024-03-24T11:34:31.112Z,2816.00
2024-03-24T11:35:31.080Z,2898.00
2024-03-24T11:36:31.031Z,2195.00
2024-03-24T11:37:31.069Z,1642.00
2024-03-24T11:38:31.024Z,1538.00
2024-03-24T11:39:31.028Z,1058.00
2024-03-24T11:40:31.061Z,1553.00
2024-03-24T11:41:31.019Z,2297.00
2024-03-24T11:42:31.017Z,3406.00
2024-03-24T11:43:30.998Z,2931.00
2024-03-24T11:44:30.984Z,3313.00
2024-03-24T11:45:30.995Z,4024.00
2024-03-24T11:46:31.000Z,4511.00
2024-03-24T11:47:30.951Z,4909.00
2024-03-24T11:48:30.942Z,3706.00
2024-03-24T11:49:31.000Z,2913.00
2024-03-24T11:50:30.915Z,2428.00
2024-03-24T11:51:30.915Z,2629.00
2024-03-24T11:52:30.922Z,2269.00
2024-03-24T11:53:30.903Z,3442.00
2024-03-24T11:54:30.969Z,2819.00
2024-03-24T11:55:30.943Z,3269.00
2024-03-24T11:56:30.890Z,3111.00
2024-03-24T11:57:30.858Z,2394.00
2024-03-24T11:58:30.913Z,5242.00
2024-03-24T11:59:30.835Z,3725.00
2024-03-24T12:00:30.838Z,3320.00
2024-03-24T12:01:30.836Z,5474.00
2024-03-24T12:02:30.799Z,4470.00
2024-03-24T12:03:30.907Z,4141.00
2024-03-24T12:04:30.818Z,3777.00
2024-03-24T12:05:30.792Z,3109.00
2024-03-24T12:06:30.749Z,3319.00
2024-03-24T12:07:30.807Z,4103.00
2024-03-24T12:08:30.791Z,4935.00
2024-03-24T12:09:30.730Z,5134.00
2024-03-24T12:10:30.807Z,4564.00
2024-03-24T12:11:30.712Z,3510.00
2024-03-24T12:12:30.733Z,2389.00
2024-03-24T12:13:30.743Z,1845.00
2024-03-24T12:14:30.688Z,2897.00
2024-03-24T12:15:30.695Z,2594.00
2024-03-24T12:16:30.708Z,2027.00
2024-03-24T12:17:30.697Z,2312.00
2024-03-24T12:18:30.666Z,2726.00
2024-03-24T12:19:30.670Z,1520.00
2024-03-24T12:20:30.648Z,1978.00
2024-03-24T12:21:30.659Z,2449.00
2024-03-24T12:22:30.633Z,2935.00
2024-03-24T12:23:30.619Z,2964.00
2024-03-24T12:24:30.591Z,2948.00
2024-03-24T12:25:30.629Z,2889.00
2024-03-24T12:26:30.596Z,3408.00
2024-03-24T12:27:30.570Z,4107.00
2024-03-24T12:28:30.608Z,2956.00
2024-03-24T12:29:30.586Z,2459.00
2024-03-24T12:30:30.530Z,1917.00
2024-03-24T12:31:30.557Z,2620.00
2024-03-24T12:32:30.522Z,3099.00